Love Boat — OT3861 — position and weather

sailwx.info

Track history (hours):
 
Tides and Currents Weather Stations Pressure Air Temp Water Temp Dewpoint Dewpoint Depression Visibility Wind Speed Wind Dir Waves Ship Positions

Love Boat

Last reported at 2016-Aug-18 20:33 UTC. Time now 2016-Aug-27 06:28 UTC.
Position N 50°42' E 007°10'.
Warning: this ship's position is 8 days out of date.

Length 110 m.

Type: Ship. MMSI: 205386190.

Date/timePositionNaut miles runAvg speedWind from/ knotsBaromVisibWave heightAir tempDewpointWater temp
2016-Aug-18 20:33N 50°42' E 007°10'4 3.9
2016-Aug-18 19:33N 50°45' E 007°06'4 4.2
2016-Aug-18 18:31N 50°48' E 007°02'4 2.8
2016-Aug-18 17:15N 50°51' E 007°00'3 3.6
2016-Aug-18 16:27N 50°54' E 007°03'3 3.5
2016-Aug-18 15:29N 50°55' E 006°58'15 3.5
2016-Aug-18 11:10N 51°10' E 006°51'2 3.5
2016-Aug-18 10:33N 51°09' E 006°48'3 3.2
2016-Aug-18 09:33N 51°11' E 006°44'3 2.7
2016-Aug-18 08:33N 51°14' E 006°46'16 3.2
2016-Aug-18 03:33N 51°30' E 006°41'3 3.3
2016-Aug-18 02:33N 51°33' E 006°41'3 2.9
2016-Aug-18 01:33N 51°34' E 006°36'2 2.2
2016-Aug-18 00:33N 51°36' E 006°36'0 0.0
2016-Aug-17 23:33N 51°36' E 006°36'0 0.0
2016-Aug-17 22:33N 51°36' E 006°36'0 0.0
2016-Aug-17 21:33N 51°36' E 006°36'0 0.0
2016-Aug-17 20:33N 51°36' E 006°36'2 1.8
2016-Aug-17 19:32N 51°38' E 006°36'4 3.7
2016-Aug-17 18:33N 51°40' E 006°31'9 4.3
2016-Aug-17 16:21N 51°46' E 006°20'17 4.4
2016-Aug-17 12:21N 51°51' E 005°52'19 4.9
2016-Aug-17 08:30N 51°49' E 005°22'13 5.6
2016-Aug-17 06:10N 51°49' E 005°01'4 7.1
2016-Aug-17 05:33N 51°49' E 004°54'8 7.9
2016-Aug-17 04:34N 51°49' E 004°41'8 7.6
2016-Aug-17 03:33N 51°50' E 004°29'9 8.7
2016-Aug-17 02:33N 51°52' E 004°15'8 8.3
2016-Aug-17 01:33N 51°56' E 004°04'1 1.0
2016-Aug-17 00:33N 51°56' E 004°02'0 0.0
2016-Aug-16 23:33N 51°56' E 004°02'0 0.0
2016-Aug-16 22:33N 51°56' E 004°02'0 0.1
2016-Aug-16 21:34N 51°56' E 004°02'0 0.0
2016-Aug-16 20:33N 51°56' E 004°02'0 0.0
2016-Aug-16 19:33N 51°56' E 004°02'4 4.3
2016-Aug-16 18:33N 51°56' E 004°09'4 4.1
2016-Aug-16 17:33N 51°53' E 004°14'9 8.9
2016-Aug-16 16:34N 51°50' E 004°27'7 7.4
2016-Aug-16 15:33N 51°48' E 004°39'4 4.2
2016-Aug-16 14:30N 51°44' E 004°38'27 4.5
2016-Aug-16 08:33N 51°34' E 003°58'6 6.2
2016-Aug-16 07:33N 51°28' E 004°00'11 3.6
2016-Aug-16 04:33N 51°27' E 003°43'0 0.1
2016-Aug-16 03:33N 51°27' E 003°43'0 0.0
2016-Aug-16 02:33N 51°27' E 003°43'0 0.0
2016-Aug-16 01:33N 51°27' E 003°43'0 0.0
2016-Aug-16 00:33N 51°27' E 003°43'0 0.0
2016-Aug-15 23:34N 51°27' E 003°43'1 0.6
2016-Aug-15 22:33N 51°27' E 003°42'0 0.0
2016-Aug-15 21:34N 51°27' E 003°42'0 0.0
2016-Aug-15 20:34N 51°27' E 003°42'0 0.0
2016-Aug-15 19:33N 51°27' E 003°42'0 0.0
2016-Aug-15 18:33N 51°27' E 003°42'0 0.1
2016-Aug-15 17:33N 51°27' E 003°42'0 0.0
2016-Aug-15 16:33N 51°27' E 003°42'0 0.2
2016-Aug-15 15:33N 51°27' E 003°42'0 0.0
2016-Aug-15 14:34N 51°27' E 003°42'1 1.3
2016-Aug-15 13:33N 51°26' E 003°42'8 7.5
2016-Aug-15 12:33N 51°22' E 003°52'6 6.1
2016-Aug-15 11:33N 51°27' E 003°58'2 2.3
2016-Aug-15 10:34N 51°29' E 004°00'6 6.3
2016-Aug-15 09:33N 51°35' E 003°58'10 4.2
2016-Aug-15 07:03N 51°39' E 004°13'4 6.1
2016-Aug-15 06:28N 51°39' E 004°19'9 4.7
2016-Aug-15 04:33N 51°42' E 004°33'3 3.4
2016-Aug-15 03:34N 51°43' E 004°38'0 0.0
2016-Aug-15 02:34N 51°43' E 004°38'0 0.1
2016-Aug-15 01:33N 51°43' E 004°38'0 0.0
2016-Aug-15 00:33N 51°43' E 004°38'0 0.0
2016-Aug-14 23:33N 51°43' E 004°38'0 0.0
2016-Aug-14 22:34N 51°43' E 004°38'0 0.0
2016-Aug-14 21:33N 51°43' E 004°38'0 0.0
2016-Aug-14 20:33N 51°43' E 004°38'5 4.9
2016-Aug-14 19:33N 51°45' E 004°44'7 6.6
2016-Aug-14 18:33N 51°49' E 004°53'11 7.9
2016-Aug-14 17:07N 51°49' E 005°12'5 8.4
2016-Aug-14 16:33N 51°49' E 005°19'15 7.4
2016-Aug-14 14:30N 51°53' E 005°43'31 7.2
2016-Aug-14 10:11N 51°40' E 006°29'5 8.0
2016-Aug-14 09:33N 51°39' E 006°36'6 5.9
2016-Aug-14 08:33N 51°33' E 006°41'8 1.8
2016-Aug-14 04:13N 51°30' E 006°52'7 0.2
2016-Aug-12 19:24N 51°28' E 006°42'3 3.3
2016-Aug-12 18:24N 51°32' E 006°42'3 4.0
2016-Aug-12 17:33N 51°35' E 006°39'37 4.5
2016-Aug-12 09:28N 51°53' E 005°48'16 5.5
2016-Aug-12 06:33N 51°49' E 005°22'5 5.4
2016-Aug-12 05:33N 51°49' E 005°13'7 3.6
2016-Aug-12 03:28N 51°49' E 005°01'6 6.9
2016-Aug-12 02:33N 51°49' E 004°51'7 7.4
2016-Aug-12 01:34N 51°49' E 004°39'7 6.9
2016-Aug-12 00:33N 51°50' E 004°28'8 7.7
2016-Aug-11 23:33N 51°52' E 004°16'7 7.1
2016-Aug-11 22:33N 51°56' E 004°07'3 3.0
2016-Aug-11 21:33N 51°56' E 004°02'0 0.0
2016-Aug-11 20:33N 51°56' E 004°02'0 0.0
2016-Aug-11 19:33N 51°56' E 004°02'0 0.0
2016-Aug-11 18:33N 51°56' E 004°02'0 0.0
2016-Aug-11 17:33N 51°56' E 004°02'1 0.7
2016-Aug-11 16:33N 51°56' E 004°02'1 0.6
2016-Aug-11 15:33N 51°56' E 004°02'0 0.0
2016-Aug-11 14:33N 51°56' E 004°02'0 0.0
2016-Aug-11 13:33N 51°56' E 004°02'0 0.0
2016-Aug-11 12:33N 51°56' E 004°02'0 0.0
2016-Aug-11 11:33N 51°56' E 004°02'0 0.0
2016-Aug-11 10:33N 51°56' E 004°02'0 0.0
2016-Aug-11 09:33N 51°56' E 004°02'1 1.1
2016-Aug-11 08:33N 51°56' E 004°04'3 3.2
2016-Aug-11 07:33N 51°56' E 004°09'4 4.3
2016-Aug-11 06:33N 51°53' E 004°14'8 7.9
2016-Aug-11 05:33N 51°50' E 004°26'8 8.3
2016-Aug-11 04:33N 51°46' E 004°38'1 0.7
2016-Aug-11 03:33N 51°45' E 004°38'0 0.0
2016-Aug-11 02:33N 51°45' E 004°38'0 0.0
2016-Aug-11 01:33N 51°45' E 004°38'0 0.0
2016-Aug-11 00:33N 51°45' E 004°38'0 0.0
2016-Aug-10 23:33N 51°45' E 004°38'0 0.0
2016-Aug-10 22:33N 51°45' E 004°38'0 0.0
2016-Aug-10 21:33N 51°45' E 004°38'0 0.0
2016-Aug-10 20:33N 51°45' E 004°38'0 0.0
2016-Aug-10 19:33N 51°45' E 004°38'0 0.0
2016-Aug-10 18:33N 51°45' E 004°38'0 0.0
2016-Aug-10 17:33N 51°45' E 004°38'0 0.0
2016-Aug-10 16:33N 51°45' E 004°38'0 0.0
2016-Aug-10 15:33N 51°45' E 004°38'0 0.0
2016-Aug-10 14:33N 51°45' E 004°38'0 0.0
2016-Aug-10 13:33N 51°45' E 004°38'3 2.7
2016-Aug-10 12:33N 51°43' E 004°36'16 5.2
2016-Aug-10 09:26N 51°37' E 004°12'7 6.9
2016-Aug-10 08:28N 51°30' E 004°13'5 5.1
2016-Aug-10 07:33N 51°26' E 004°14'5 5.5
2016-Aug-10 06:33N 51°21' E 004°17'3 2.5
2016-Aug-10 05:33N 51°18' E 004°16'2 1.9
2016-Aug-10 04:33N 51°17' E 004°15'1 1.2
2016-Aug-10 03:33N 51°16' E 004°16'0 0.0
2016-Aug-10 02:33N 51°16' E 004°16'0 0.0
2016-Aug-10 01:33N 51°16' E 004°16'0 0.0
2016-Aug-10 00:33N 51°16' E 004°16'0 0.0
2016-Aug-09 23:33N 51°16' E 004°16'0 0.0
2016-Aug-09 22:33N 51°16' E 004°16'0 0.0
2016-Aug-09 21:33N 51°16' E 004°16'0 0.0
2016-Aug-09 20:33N 51°16' E 004°16'0 0.0
2016-Aug-09 19:33N 51°16' E 004°16'0 0.0
2016-Aug-09 18:33N 51°16' E 004°16'0 0.0
2016-Aug-09 17:33N 51°16' E 004°16'0 0.0
2016-Aug-09 16:33N 51°16' E 004°16'0 0.0
2016-Aug-09 15:33N 51°16' E 004°16'0 0.0
2016-Aug-09 14:33N 51°16' E 004°16'0 0.0
2016-Aug-09 13:33N 51°16' E 004°16'0 0.0
2016-Aug-09 12:33N 51°16' E 004°16'0 0.4
2016-Aug-09 11:33N 51°16' E 004°15'1 0.9
2016-Aug-09 10:33N 51°15' E 004°14'0 0.0
2016-Aug-09 09:33N 51°15' E 004°14'0 0.0
2016-Aug-09 08:33N 51°15' E 004°14'0 0.0
2016-Aug-09 07:34N 51°15' E 004°14'0 0.0
2016-Aug-09 05:33N 51°15' E 004°14'0 0.0
2016-Aug-09 04:33N 51°15' E 004°14'0 0.4
2016-Aug-09 03:33N 51°16' E 004°15'0 0.0
2016-Aug-09 02:33N 51°16' E 004°15'0 0.0
2016-Aug-09 01:33N 51°16' E 004°15'0 0.0
2016-Aug-09 00:33N 51°16' E 004°15'0 0.0
2016-Aug-08 23:33N 51°16' E 004°15'0 0.0
2016-Aug-08 22:33N 51°16' E 004°15'0 0.2
2016-Aug-08 21:33N 51°16' E 004°14'2 1.7
2016-Aug-08 20:34N 51°17' E 004°15'  
Track history (hours):
 
Tides and Currents Weather Stations Pressure Air Temp Water Temp Dewpoint Dewpoint Depression Visibility Wind Speed Wind Dir Waves Ship Positions

Love Boat

Last reported at 2016-Aug-18 20:33 UTC. Time now 2016-Aug-27 06:28 UTC.
Position N 50°42' E 007°10'.
Warning: this ship's position is 8 days out of date.

Length 110 m.

Type: Ship. MMSI: 205386190.

Date/timePositionNaut miles runAvg speedWind from/ knotsBaromVisibWave heightAir tempDewpointWater temp
2016-Aug-18 20:33N 50°42' E 007°10'4 3.9
2016-Aug-18 19:33N 50°45' E 007°06'4 4.2
2016-Aug-18 18:31N 50°48' E 007°02'4 2.8
2016-Aug-18 17:15N 50°51' E 007°00'3 3.6
2016-Aug-18 16:27N 50°54' E 007°03'3 3.5
2016-Aug-18 15:29N 50°55' E 006°58'15 3.5
2016-Aug-18 11:10N 51°10' E 006°51'2 3.5
2016-Aug-18 10:33N 51°09' E 006°48'3 3.2
2016-Aug-18 09:33N 51°11' E 006°44'3 2.7
2016-Aug-18 08:33N 51°14' E 006°46'16 3.2
2016-Aug-18 03:33N 51°30' E 006°41'3 3.3
2016-Aug-18 02:33N 51°33' E 006°41'3 2.9
2016-Aug-18 01:33N 51°34' E 006°36'2 2.2
2016-Aug-18 00:33N 51°36' E 006°36'0 0.0
2016-Aug-17 23:33N 51°36' E 006°36'0 0.0
2016-Aug-17 22:33N 51°36' E 006°36'0 0.0
2016-Aug-17 21:33N 51°36' E 006°36'0 0.0
2016-Aug-17 20:33N 51°36' E 006°36'2 1.8
2016-Aug-17 19:32N 51°38' E 006°36'4 3.7
2016-Aug-17 18:33N 51°40' E 006°31'9 4.3
2016-Aug-17 16:21N 51°46' E 006°20'17 4.4
2016-Aug-17 12:21N 51°51' E 005°52'19 4.9
2016-Aug-17 08:30N 51°49' E 005°22'13 5.6
2016-Aug-17 06:10N 51°49' E 005°01'4 7.1
2016-Aug-17 05:33N 51°49' E 004°54'8 7.9
2016-Aug-17 04:34N 51°49' E 004°41'8 7.6
2016-Aug-17 03:33N 51°50' E 004°29'9 8.7
2016-Aug-17 02:33N 51°52' E 004°15'8 8.3
2016-Aug-17 01:33N 51°56' E 004°04'1 1.0
2016-Aug-17 00:33N 51°56' E 004°02'0 0.0
2016-Aug-16 23:33N 51°56' E 004°02'0 0.0
2016-Aug-16 22:33N 51°56' E 004°02'0 0.1
2016-Aug-16 21:34N 51°56' E 004°02'0 0.0
2016-Aug-16 20:33N 51°56' E 004°02'0 0.0
2016-Aug-16 19:33N 51°56' E 004°02'4 4.3
2016-Aug-16 18:33N 51°56' E 004°09'4 4.1
2016-Aug-16 17:33N 51°53' E 004°14'9 8.9
2016-Aug-16 16:34N 51°50' E 004°27'7 7.4
2016-Aug-16 15:33N 51°48' E 004°39'4 4.2
2016-Aug-16 14:30N 51°44' E 004°38'27 4.5
2016-Aug-16 08:33N 51°34' E 003°58'6 6.2
2016-Aug-16 07:33N 51°28' E 004°00'11 3.6
2016-Aug-16 04:33N 51°27' E 003°43'0 0.1
2016-Aug-16 03:33N 51°27' E 003°43'0 0.0
2016-Aug-16 02:33N 51°27' E 003°43'0 0.0
2016-Aug-16 01:33N 51°27' E 003°43'0 0.0
2016-Aug-16 00:33N 51°27' E 003°43'0 0.0
2016-Aug-15 23:34N 51°27' E 003°43'1 0.6
2016-Aug-15 22:33N 51°27' E 003°42'0 0.0
2016-Aug-15 21:34N 51°27' E 003°42'0 0.0
2016-Aug-15 20:34N 51°27' E 003°42'0 0.0
2016-Aug-15 19:33N 51°27' E 003°42'0 0.0
2016-Aug-15 18:33N 51°27' E 003°42'0 0.1
2016-Aug-15 17:33N 51°27' E 003°42'0 0.0
2016-Aug-15 16:33N 51°27' E 003°42'0 0.2
2016-Aug-15 15:33N 51°27' E 003°42'0 0.0
2016-Aug-15 14:34N 51°27' E 003°42'1 1.3
2016-Aug-15 13:33N 51°26' E 003°42'8 7.5
2016-Aug-15 12:33N 51°22' E 003°52'6 6.1
2016-Aug-15 11:33N 51°27' E 003°58'2 2.3
2016-Aug-15 10:34N 51°29' E 004°00'6 6.3
2016-Aug-15 09:33N 51°35' E 003°58'10 4.2
2016-Aug-15 07:03N 51°39' E 004°13'4 6.1
2016-Aug-15 06:28N 51°39' E 004°19'9 4.7
2016-Aug-15 04:33N 51°42' E 004°33'3 3.4
2016-Aug-15 03:34N 51°43' E 004°38'0 0.0
2016-Aug-15 02:34N 51°43' E 004°38'0 0.1
2016-Aug-15 01:33N 51°43' E 004°38'0 0.0
2016-Aug-15 00:33N 51°43' E 004°38'0 0.0
2016-Aug-14 23:33N 51°43' E 004°38'0 0.0
2016-Aug-14 22:34N 51°43' E 004°38'0 0.0
2016-Aug-14 21:33N 51°43' E 004°38'0 0.0
2016-Aug-14 20:33N 51°43' E 004°38'5 4.9
2016-Aug-14 19:33N 51°45' E 004°44'7 6.6
2016-Aug-14 18:33N 51°49' E 004°53'11 7.9
2016-Aug-14 17:07N 51°49' E 005°12'5 8.4
2016-Aug-14 16:33N 51°49' E 005°19'15 7.4
2016-Aug-14 14:30N 51°53' E 005°43'31 7.2
2016-Aug-14 10:11N 51°40' E 006°29'5 8.0
2016-Aug-14 09:33N 51°39' E 006°36'6 5.9
2016-Aug-14 08:33N 51°33' E 006°41'8 1.8
2016-Aug-14 04:13N 51°30' E 006°52'7 0.2
2016-Aug-12 19:24N 51°28' E 006°42'3 3.3
2016-Aug-12 18:24N 51°32' E 006°42'3 4.0
2016-Aug-12 17:33N 51°35' E 006°39'37 4.5
2016-Aug-12 09:28N 51°53' E 005°48'16 5.5
2016-Aug-12 06:33N 51°49' E 005°22'5 5.4
2016-Aug-12 05:33N 51°49' E 005°13'7 3.6
2016-Aug-12 03:28N 51°49' E 005°01'6 6.9
2016-Aug-12 02:33N 51°49' E 004°51'7 7.4
2016-Aug-12 01:34N 51°49' E 004°39'7 6.9
2016-Aug-12 00:33N 51°50' E 004°28'8 7.7
2016-Aug-11 23:33N 51°52' E 004°16'7 7.1
2016-Aug-11 22:33N 51°56' E 004°07'3 3.0
2016-Aug-11 21:33N 51°56' E 004°02'0 0.0
2016-Aug-11 20:33N 51°56' E 004°02'0 0.0
2016-Aug-11 19:33N 51°56' E 004°02'0 0.0
2016-Aug-11 18:33N 51°56' E 004°02'0 0.0
2016-Aug-11 17:33N 51°56' E 004°02'1 0.7
2016-Aug-11 16:33N 51°56' E 004°02'1 0.6
2016-Aug-11 15:33N 51°56' E 004°02'0 0.0
2016-Aug-11 14:33N 51°56' E 004°02'0 0.0
2016-Aug-11 13:33N 51°56' E 004°02'0 0.0
2016-Aug-11 12:33N 51°56' E 004°02'0 0.0
2016-Aug-11 11:33N 51°56' E 004°02'0 0.0
2016-Aug-11 10:33N 51°56' E 004°02'0 0.0
2016-Aug-11 09:33N 51°56' E 004°02'1 1.1
2016-Aug-11 08:33N 51°56' E 004°04'3 3.2
2016-Aug-11 07:33N 51°56' E 004°09'4 4.3
2016-Aug-11 06:33N 51°53' E 004°14'8 7.9
2016-Aug-11 05:33N 51°50' E 004°26'8 8.3
2016-Aug-11 04:33N 51°46' E 004°38'1 0.7
2016-Aug-11 03:33N 51°45' E 004°38'0 0.0
2016-Aug-11 02:33N 51°45' E 004°38'0 0.0
2016-Aug-11 01:33N 51°45' E 004°38'0 0.0
2016-Aug-11 00:33N 51°45' E 004°38'0 0.0
2016-Aug-10 23:33N 51°45' E 004°38'0 0.0
2016-Aug-10 22:33N 51°45' E 004°38'0 0.0
2016-Aug-10 21:33N 51°45' E 004°38'0 0.0
2016-Aug-10 20:33N 51°45' E 004°38'0 0.0
2016-Aug-10 19:33N 51°45' E 004°38'0 0.0
2016-Aug-10 18:33N 51°45' E 004°38'0 0.0
2016-Aug-10 17:33N 51°45' E 004°38'0 0.0
2016-Aug-10 16:33N 51°45' E 004°38'0 0.0
2016-Aug-10 15:33N 51°45' E 004°38'0 0.0
2016-Aug-10 14:33N 51°45' E 004°38'0 0.0
2016-Aug-10 13:33N 51°45' E 004°38'3 2.7
2016-Aug-10 12:33N 51°43' E 004°36'16 5.2
2016-Aug-10 09:26N 51°37' E 004°12'7 6.9
2016-Aug-10 08:28N 51°30' E 004°13'5 5.1
2016-Aug-10 07:33N 51°26' E 004°14'5 5.5
2016-Aug-10 06:33N 51°21' E 004°17'3 2.5
2016-Aug-10 05:33N 51°18' E 004°16'2 1.9
2016-Aug-10 04:33N 51°17' E 004°15'1 1.2
2016-Aug-10 03:33N 51°16' E 004°16'0 0.0
2016-Aug-10 02:33N 51°16' E 004°16'0 0.0
2016-Aug-10 01:33N 51°16' E 004°16'0 0.0
2016-Aug-10 00:33N 51°16' E 004°16'0 0.0
2016-Aug-09 23:33N 51°16' E 004°16'0 0.0
2016-Aug-09 22:33N 51°16' E 004°16'0 0.0
2016-Aug-09 21:33N 51°16' E 004°16'0 0.0
2016-Aug-09 20:33N 51°16' E 004°16'0 0.0
2016-Aug-09 19:33N 51°16' E 004°16'0 0.0
2016-Aug-09 18:33N 51°16' E 004°16'0 0.0
2016-Aug-09 17:33N 51°16' E 004°16'0 0.0
2016-Aug-09 16:33N 51°16' E 004°16'0 0.0
2016-Aug-09 15:33N 51°16' E 004°16'0 0.0
2016-Aug-09 14:33N 51°16' E 004°16'0 0.0
2016-Aug-09 13:33N 51°16' E 004°16'0 0.0
2016-Aug-09 12:33N 51°16' E 004°16'0 0.4
2016-Aug-09 11:33N 51°16' E 004°15'1 0.9
2016-Aug-09 10:33N 51°15' E 004°14'0 0.0
2016-Aug-09 09:33N 51°15' E 004°14'0 0.0
2016-Aug-09 08:33N 51°15' E 004°14'0 0.0
2016-Aug-09 07:34N 51°15' E 004°14'0 0.0
2016-Aug-09 05:33N 51°15' E 004°14'0 0.0
2016-Aug-09 04:33N 51°15' E 004°14'0 0.4
2016-Aug-09 03:33N 51°16' E 004°15'0 0.0
2016-Aug-09 02:33N 51°16' E 004°15'0 0.0
2016-Aug-09 01:33N 51°16' E 004°15'0 0.0
2016-Aug-09 00:33N 51°16' E 004°15'0 0.0
2016-Aug-08 23:33N 51°16' E 004°15'0 0.0
2016-Aug-08 22:33N 51°16' E 004°15'0 0.2
2016-Aug-08 21:33N 51°16' E 004°14'2 1.7
2016-Aug-08 20:34N 51°17' E 004°15'  

Dump ship's entire track history